Lakeside, Michigan
Current Conditions -  °F | °C
As of 3:35 AM on Friday 24 Oct 2014 (Local Time) from KMGC Reporting Station
Overcast Overcast  
Wind Chill: 52°   Ceiling: 3000
Heat Index: 52°   Visibility: 10mi
Dew Point: 41°   Wind: 5mph
Humidity: 67%   Direction: 210°SSW
Pressure: 30.06"   Gusts: NA
Location:  41.84°N, 86.66°W
Report Text: KMGC 240735Z AUTO 21004KT 10SM OVC030 11/05 A3006 RMK AO2
Loading
Personal Weather Stations






























Interactive Weather Map
Tropical Storm Tracking
New forecast layout! Learn more

10-Day Weather Forecast

Advertisements
Track Severe Weather on mobile